sensor_id;sensor_type;location;lat;lon;timestamp;P1;durP1;ratioP1;P2;durP2;ratioP2
48805;SDS011;34625;47.176;27.548;2022-10-30T00:01:38;10.65;;;5.78;;
48805;SDS011;34625;47.176;27.548;2022-10-30T00:04:04;8.18;;;4.57;;
48805;SDS011;34625;47.176;27.548;2022-10-30T00:06:30;9.18;;;4.63;;
48805;SDS011;34625;47.176;27.548;2022-10-30T00:08:56;6.65;;;5.25;;
48805;SDS011;34625;47.176;27.548;2022-10-30T00:11:22;9.48;;;5.38;;
48805;SDS011;34625;47.176;27.548;2022-10-30T00:13:48;9.98;;;5.20;;
48805;SDS011;34625;47.176;27.548;2022-10-30T00:16:14;11.80;;;5.60;;
48805;SDS011;34625;47.176;27.548;2022-10-30T00:18:40;7.70;;;5.20;;
48805;SDS011;34625;47.176;27.548;2022-10-30T00:21:11;7.90;;;4.85;;
48805;SDS011;34625;47.176;27.548;2022-10-30T00:23:49;8.25;;;5.68;;
48805;SDS011;34625;47.176;27.548;2022-10-30T00:26:19;7.80;;;5.38;;
48805;SDS011;34625;47.176;27.548;2022-10-30T00:28:49;11.95;;;5.95;;
48805;SDS011;34625;47.176;27.548;2022-10-30T00:31:16;10.63;;;5.15;;
48805;SDS011;34625;47.176;27.548;2022-10-30T00:33:42;11.65;;;5.75;;
48805;SDS011;34625;47.176;27.548;2022-10-30T00:36:08;7.35;;;5.03;;
48805;SDS011;34625;47.176;27.548;2022-10-30T00:38:34;10.68;;;5.70;;
48805;SDS011;34625;47.176;27.548;2022-10-30T00:41:00;6.40;;;4.47;;
48805;SDS011;34625;47.176;27.548;2022-10-30T00:43:36;12.10;;;5.15;;
48805;SDS011;34625;47.176;27.548;2022-10-30T00:48:55;8.80;;;5.20;;
48805;SDS011;34625;47.176;27.548;2022-10-30T00:51:24;8.77;;;5.40;;
48805;SDS011;34625;47.176;27.548;2022-10-30T00:53:52;10.20;;;5.10;;
48805;SDS011;34625;47.176;27.548;2022-10-30T00:56:20;11.07;;;6.07;;
48805;SDS011;34625;47.176;27.548;2022-10-30T00:58:49;7.68;;;5.20;;
48805;SDS011;34625;47.176;27.548;2022-10-30T01:01:21;10.90;;;5.50;;
48805;SDS011;34625;47.176;27.548;2022-10-30T01:03:51;12.18;;;5.38;;
48805;SDS011;34625;47.176;27.548;2022-10-30T01:06:20;7.45;;;4.85;;
48805;SDS011;34625;47.176;27.548;2022-10-30T01:08:48;14.48;;;6.15;;
48805;SDS011;34625;47.176;27.548;2022-10-30T01:11:15;7.60;;;4.95;;
48805;SDS011;34625;47.176;27.548;2022-10-30T01:13:41;11.07;;;6.40;;
48805;SDS011;34625;47.176;27.548;2022-10-30T01:16:15;8.68;;;6.10;;
48805;SDS011;34625;47.176;27.548;2022-10-30T01:22:17;9.75;;;5.55;;
48805;SDS011;34625;47.176;27.548;2022-10-30T01:36:00;9.20;;;5.18;;
48805;SDS011;34625;47.176;27.548;2022-10-30T01:38:38;11.68;;;5.93;;
48805;SDS011;34625;47.176;27.548;2022-10-30T01:41:08;11.52;;;6.75;;
48805;SDS011;34625;47.176;27.548;2022-10-30T01:43:34;10.13;;;6.05;;
48805;SDS011;34625;47.176;27.548;2022-10-30T01:46:24;11.93;;;5.38;;
48805;SDS011;34625;47.176;27.548;2022-10-30T01:49:18;8.50;;;5.63;;
48805;SDS011;34625;47.176;27.548;2022-10-30T01:55:15;8.55;;;5.78;;
48805;SDS011;34625;47.176;27.548;2022-10-30T02:00:13;10.50;;;5.95;;
48805;SDS011;34625;47.176;27.548;2022-10-30T02:02:45;8.50;;;5.80;;
48805;SDS011;34625;47.176;27.548;2022-10-30T02:05:15;10.52;;;6.07;;
48805;SDS011;34625;47.176;27.548;2022-10-30T02:07:54;12.15;;;6.45;;
48805;SDS011;34625;47.176;27.548;2022-10-30T02:10:20;7.85;;;5.50;;
48805;SDS011;34625;47.176;27.548;2022-10-30T02:12:47;12.00;;;5.45;;
48805;SDS011;34625;47.176;27.548;2022-10-30T02:15:14;15.07;;;6.25;;
48805;SDS011;34625;47.176;27.548;2022-10-30T02:17:40;10.10;;;5.60;;
48805;SDS011;34625;47.176;27.548;2022-10-30T02:20:12;9.00;;;5.57;;
48805;SDS011;34625;47.176;27.548;2022-10-30T02:25:06;8.32;;;5.68;;
48805;SDS011;34625;47.176;27.548;2022-10-30T02:27:33;13.63;;;6.00;;
48805;SDS011;34625;47.176;27.548;2022-10-30T02:29:59;17.85;;;6.03;;
48805;SDS011;34625;47.176;27.548;2022-10-30T02:32:26;9.85;;;5.38;;
48805;SDS011;34625;47.176;27.548;2022-10-30T02:34:52;10.60;;;5.30;;
48805;SDS011;34625;47.176;27.548;2022-10-30T02:37:18;10.80;;;5.88;;
48805;SDS011;34625;47.176;27.548;2022-10-30T02:39:44;9.65;;;5.25;;
48805;SDS011;34625;47.176;27.548;2022-10-30T02:42:10;11.65;;;6.18;;
48805;SDS011;34625;47.176;27.548;2022-10-30T02:44:36;11.65;;;5.80;;
48805;SDS011;34625;47.176;27.548;2022-10-30T02:47:02;11.65;;;5.60;;
48805;SDS011;34625;47.176;27.548;2022-10-30T02:49:28;12.05;;;6.50;;
48805;SDS011;34625;47.176;27.548;2022-10-30T02:51:54;14.13;;;5.10;;
48805;SDS011;34625;47.176;27.548;2022-10-30T02:54:20;13.57;;;5.32;;
48805;SDS011;34625;47.176;27.548;2022-10-30T02:56:47;15.32;;;5.82;;
48805;SDS011;34625;47.176;27.548;2022-10-30T02:59:13;12.18;;;5.45;;
48805;SDS011;34625;47.176;27.548;2022-10-30T03:01:39;11.32;;;5.75;;
48805;SDS011;34625;47.176;27.548;2022-10-30T03:04:05;10.73;;;6.38;;
48805;SDS011;34625;47.176;27.548;2022-10-30T03:06:31;12.07;;;6.63;;
48805;SDS011;34625;47.176;27.548;2022-10-30T03:08:57;10.82;;;5.75;;
48805;SDS011;34625;47.176;27.548;2022-10-30T03:11:23;12.18;;;6.25;;
48805;SDS011;34625;47.176;27.548;2022-10-30T03:13:51;11.02;;;5.93;;
48805;SDS011;34625;47.176;27.548;2022-10-30T03:16:23;11.90;;;5.35;;
48805;SDS011;34625;47.176;27.548;2022-10-30T03:18:51;9.52;;;6.45;;
48805;SDS011;34625;47.176;27.548;2022-10-30T03:21:18;8.63;;;6.20;;
48805;SDS011;34625;47.176;27.548;2022-10-30T03:23:46;9.32;;;6.13;;
48805;SDS011;34625;47.176;27.548;2022-10-30T03:26:14;11.10;;;5.57;;
48805;SDS011;34625;47.176;27.548;2022-10-30T03:28:47;8.60;;;5.82;;
48805;SDS011;34625;47.176;27.548;2022-10-30T03:31:14;10.52;;;5.80;;
48805;SDS011;34625;47.176;27.548;2022-10-30T03:33:42;14.02;;;6.28;;
48805;SDS011;34625;47.176;27.548;2022-10-30T03:36:11;11.18;;;6.22;;
48805;SDS011;34625;47.176;27.548;2022-10-30T03:38:38;13.35;;;6.40;;
48805;SDS011;34625;47.176;27.548;2022-10-30T03:41:04;14.50;;;6.15;;
48805;SDS011;34625;47.176;27.548;2022-10-30T03:43:31;10.77;;;5.55;;
48805;SDS011;34625;47.176;27.548;2022-10-30T03:45:57;11.35;;;5.68;;
48805;SDS011;34625;47.176;27.548;2022-10-30T03:48:25;10.85;;;5.75;;
48805;SDS011;34625;47.176;27.548;2022-10-30T03:50:54;8.80;;;5.93;;
48805;SDS011;34625;47.176;27.548;2022-10-30T03:53:22;15.45;;;6.00;;
48805;SDS011;34625;47.176;27.548;2022-10-30T03:56:00;10.27;;;5.63;;
48805;SDS011;34625;47.176;27.548;2022-10-30T03:58:36;15.50;;;6.07;;
48805;SDS011;34625;47.176;27.548;2022-10-30T04:01:05;12.05;;;5.90;;
48805;SDS011;34625;47.176;27.548;2022-10-30T04:03:35;10.95;;;5.85;;
48805;SDS011;34625;47.176;27.548;2022-10-30T04:06:01;12.30;;;7.03;;
48805;SDS011;34625;47.176;27.548;2022-10-30T04:08:27;12.15;;;6.00;;
48805;SDS011;34625;47.176;27.548;2022-10-30T04:10:53;8.98;;;5.93;;
48805;SDS011;34625;47.176;27.548;2022-10-30T04:13:21;12.82;;;6.50;;
48805;SDS011;34625;47.176;27.548;2022-10-30T04:15:50;10.30;;;7.10;;
48805;SDS011;34625;47.176;27.548;2022-10-30T04:18:19;9.43;;;6.03;;
48805;SDS011;34625;47.176;27.548;2022-10-30T04:20:45;8.80;;;6.32;;
48805;SDS011;34625;47.176;27.548;2022-10-30T04:23:14;11.63;;;6.60;;
48805;SDS011;34625;47.176;27.548;2022-10-30T04:25:42;9.82;;;5.38;;
48805;SDS011;34625;47.176;27.548;2022-10-30T04:28:09;12.50;;;6.38;;
48805;SDS011;34625;47.176;27.548;2022-10-30T04:30:36;13.32;;;6.65;;
48805;SDS011;34625;47.176;27.548;2022-10-30T04:33:04;12.95;;;6.85;;
48805;SDS011;34625;47.176;27.548;2022-10-30T04:35:33;11.25;;;6.57;;
48805;SDS011;34625;47.176;27.548;2022-10-30T04:38:08;10.85;;;6.65;;
48805;SDS011;34625;47.176;27.548;2022-10-30T04:40:37;11.25;;;5.72;;
48805;SDS011;34625;47.176;27.548;2022-10-30T04:43:06;13.23;;;6.93;;
48805;SDS011;34625;47.176;27.548;2022-10-30T04:45:33;9.82;;;5.72;;
48805;SDS011;34625;47.176;27.548;2022-10-30T04:50:33;10.57;;;6.07;;
48805;SDS011;34625;47.176;27.548;2022-10-30T04:53:04;13.50;;;6.25;;
48805;SDS011;34625;47.176;27.548;2022-10-30T04:55:31;12.70;;;6.00;;
48805;SDS011;34625;47.176;27.548;2022-10-30T04:57:58;12.65;;;6.72;;
48805;SDS011;34625;47.176;27.548;2022-10-30T05:00:28;11.48;;;6.20;;
48805;SDS011;34625;47.176;27.548;2022-10-30T05:03:01;14.38;;;6.75;;
48805;SDS011;34625;47.176;27.548;2022-10-30T05:05:28;13.80;;;6.85;;
48805;SDS011;34625;47.176;27.548;2022-10-30T05:07:55;13.70;;;6.82;;
48805;SDS011;34625;47.176;27.548;2022-10-30T05:10:21;10.50;;;5.65;;
48805;SDS011;34625;47.176;27.548;2022-10-30T05:12:49;10.35;;;6.53;;
48805;SDS011;34625;47.176;27.548;2022-10-30T05:15:17;11.93;;;6.28;;
48805;SDS011;34625;47.176;27.548;2022-10-30T05:17:43;12.32;;;6.60;;
48805;SDS011;34625;47.176;27.548;2022-10-30T05:20:10;11.07;;;6.10;;
48805;SDS011;34625;47.176;27.548;2022-10-30T05:22:36;10.15;;;6.40;;
48805;SDS011;34625;47.176;27.548;2022-10-30T05:25:02;12.63;;;6.65;;
48805;SDS011;34625;47.176;27.548;2022-10-30T05:27:28;15.70;;;6.78;;
48805;SDS011;34625;47.176;27.548;2022-10-30T05:29:54;13.13;;;6.25;;
48805;SDS011;34625;47.176;27.548;2022-10-30T05:32:20;15.20;;;7.00;;
48805;SDS011;34625;47.176;27.548;2022-10-30T05:34:48;12.25;;;6.13;;
48805;SDS011;34625;47.176;27.548;2022-10-30T05:37:18;9.70;;;6.15;;
48805;SDS011;34625;47.176;27.548;2022-10-30T05:39:44;15.68;;;7.00;;
48805;SDS011;34625;47.176;27.548;2022-10-30T05:42:22;9.05;;;6.38;;
48805;SDS011;34625;47.176;27.548;2022-10-30T05:44:48;10.27;;;6.60;;
48805;SDS011;34625;47.176;27.548;2022-10-30T05:47:15;9.70;;;6.38;;
48805;SDS011;34625;47.176;27.548;2022-10-30T05:49:45;17.73;;;7.32;;
48805;SDS011;34625;47.176;27.548;2022-10-30T05:52:15;13.30;;;7.55;;
48805;SDS011;34625;47.176;27.548;2022-10-30T05:54:41;9.27;;;6.03;;
48805;SDS011;34625;47.176;27.548;2022-10-30T05:57:13;14.05;;;5.85;;
48805;SDS011;34625;47.176;27.548;2022-10-30T05:59:40;6.38;;;4.28;;
48805;SDS011;34625;47.176;27.548;2022-10-30T06:02:06;8.32;;;5.40;;
48805;SDS011;34625;47.176;27.548;2022-10-30T06:04:32;7.47;;;5.60;;
48805;SDS011;34625;47.176;27.548;2022-10-30T06:07:01;6.90;;;4.40;;
48805;SDS011;34625;47.176;27.548;2022-10-30T06:09:29;8.23;;;4.47;;
48805;SDS011;34625;47.176;27.548;2022-10-30T06:12:13;5.80;;;4.43;;
48805;SDS011;34625;47.176;27.548;2022-10-30T06:14:58;9.65;;;5.25;;
48805;SDS011;34625;47.176;27.548;2022-10-30T06:17:24;33.58;;;9.13;;
48805;SDS011;34625;47.176;27.548;2022-10-30T06:19:58;9.95;;;5.43;;
48805;SDS011;34625;47.176;27.548;2022-10-30T06:22:59;9.02;;;5.65;;
48805;SDS011;34625;47.176;27.548;2022-10-30T06:25:34;7.53;;;5.78;;
48805;SDS011;34625;47.176;27.548;2022-10-30T06:28:19;11.63;;;6.70;;
48805;SDS011;34625;47.176;27.548;2022-10-30T06:30:45;9.82;;;7.30;;
48805;SDS011;34625;47.176;27.548;2022-10-30T06:33:11;10.75;;;8.05;;
48805;SDS011;34625;47.176;27.548;2022-10-30T06:35:43;11.85;;;7.78;;
48805;SDS011;34625;47.176;27.548;2022-10-30T06:38:09;15.65;;;8.00;;
48805;SDS011;34625;47.176;27.548;2022-10-30T06:40:36;7.15;;;4.07;;
48805;SDS011;34625;47.176;27.548;2022-10-30T06:43:25;14.20;;;7.30;;
48805;SDS011;34625;47.176;27.548;2022-10-30T06:45:57;11.25;;;7.20;;
48805;SDS011;34625;47.176;27.548;2022-10-30T06:48:23;11.30;;;7.22;;
48805;SDS011;34625;47.176;27.548;2022-10-30T06:50:54;12.50;;;7.28;;
48805;SDS011;34625;47.176;27.548;2022-10-30T06:53:22;15.02;;;7.45;;
48805;SDS011;34625;47.176;27.548;2022-10-30T06:58:53;18.10;;;7.65;;
48805;SDS011;34625;47.176;27.548;2022-10-30T07:01:32;20.80;;;8.02;;
48805;SDS011;34625;47.176;27.548;2022-10-30T07:04:18;16.40;;;7.53;;
48805;SDS011;34625;47.176;27.548;2022-10-30T07:06:45;13.38;;;7.43;;
48805;SDS011;34625;47.176;27.548;2022-10-30T07:09:11;12.00;;;7.57;;
48805;SDS011;34625;47.176;27.548;2022-10-30T07:11:37;16.08;;;8.45;;
48805;SDS011;34625;47.176;27.548;2022-10-30T07:14:17;19.30;;;8.25;;
48805;SDS011;34625;47.176;27.548;2022-10-30T07:16:55;16.20;;;7.97;;
48805;SDS011;34625;47.176;27.548;2022-10-30T07:19:22;15.48;;;6.82;;
48805;SDS011;34625;47.176;27.548;2022-10-30T07:21:48;14.82;;;7.25;;
48805;SDS011;34625;47.176;27.548;2022-10-30T07:24:15;14.43;;;7.13;;
48805;SDS011;34625;47.176;27.548;2022-10-30T07:27:01;13.23;;;6.72;;
48805;SDS011;34625;47.176;27.548;2022-10-30T07:29:51;14.70;;;7.13;;
48805;SDS011;34625;47.176;27.548;2022-10-30T07:32:20;14.27;;;7.10;;
48805;SDS011;34625;47.176;27.548;2022-10-30T07:34:51;11.85;;;7.25;;
48805;SDS011;34625;47.176;27.548;2022-10-30T07:37:47;14.88;;;6.13;;
48805;SDS011;34625;47.176;27.548;2022-10-30T07:40:14;12.85;;;5.45;;
48805;SDS011;34625;47.176;27.548;2022-10-30T07:43:04;10.50;;;5.78;;
48805;SDS011;34625;47.176;27.548;2022-10-30T07:45:51;10.38;;;5.60;;
48805;SDS011;34625;47.176;27.548;2022-10-30T07:48:22;10.45;;;4.47;;
48805;SDS011;34625;47.176;27.548;2022-10-30T07:51:11;15.68;;;5.72;;
48805;SDS011;34625;47.176;27.548;2022-10-30T07:53:39;7.65;;;5.03;;
48805;SDS011;34625;47.176;27.548;2022-10-30T07:56:07;12.88;;;5.03;;
48805;SDS011;34625;47.176;27.548;2022-10-30T07:59:03;7.32;;;4.70;;
48805;SDS011;34625;47.176;27.548;2022-10-30T08:02:02;13.27;;;5.78;;
48805;SDS011;34625;47.176;27.548;2022-10-30T08:04:42;10.80;;;5.57;;
48805;SDS011;34625;47.176;27.548;2022-10-30T08:07:29;12.70;;;5.10;;
48805;SDS011;34625;47.176;27.548;2022-10-30T08:09:58;10.77;;;5.82;;
48805;SDS011;34625;47.176;27.548;2022-10-30T08:12:25;8.80;;;4.20;;
48805;SDS011;34625;47.176;27.548;2022-10-30T08:14:51;11.25;;;6.13;;
48805;SDS011;34625;47.176;27.548;2022-10-30T08:17:18;11.70;;;5.22;;
48805;SDS011;34625;47.176;27.548;2022-10-30T08:19:45;14.13;;;7.00;;
48805;SDS011;34625;47.176;27.548;2022-10-30T08:22:11;12.32;;;4.75;;
48805;SDS011;34625;47.176;27.548;2022-10-30T08:24:39;10.23;;;4.50;;
48805;SDS011;34625;47.176;27.548;2022-10-30T08:27:05;9.85;;;5.13;;
48805;SDS011;34625;47.176;27.548;2022-10-30T08:29:31;10.75;;;4.65;;
48805;SDS011;34625;47.176;27.548;2022-10-30T08:31:59;13.68;;;4.93;;
48805;SDS011;34625;47.176;27.548;2022-10-30T08:34:44;8.55;;;5.10;;
48805;SDS011;34625;47.176;27.548;2022-10-30T08:37:10;13.00;;;5.32;;
48805;SDS011;34625;47.176;27.548;2022-10-30T08:39:37;9.73;;;5.50;;
48805;SDS011;34625;47.176;27.548;2022-10-30T08:42:32;19.55;;;6.20;;
48805;SDS011;34625;47.176;27.548;2022-10-30T08:45:01;12.23;;;5.35;;
48805;SDS011;34625;47.176;27.548;2022-10-30T08:47:45;8.65;;;5.88;;
48805;SDS011;34625;47.176;27.548;2022-10-30T08:50:11;14.10;;;6.95;;
48805;SDS011;34625;47.176;27.548;2022-10-30T08:52:37;12.43;;;5.20;;
48805;SDS011;34625;47.176;27.548;2022-10-30T08:55:05;14.38;;;6.97;;
48805;SDS011;34625;47.176;27.548;2022-10-30T08:57:35;7.57;;;5.82;;
48805;SDS011;34625;47.176;27.548;2022-10-30T09:00:05;8.80;;;5.90;;
48805;SDS011;34625;47.176;27.548;2022-10-30T09:02:51;6.97;;;3.17;;
48805;SDS011;34625;47.176;27.548;2022-10-30T09:05:36;7.85;;;6.13;;
48805;SDS011;34625;47.176;27.548;2022-10-30T09:08:31;11.23;;;5.72;;
48805;SDS011;34625;47.176;27.548;2022-10-30T09:11:10;11.52;;;5.15;;
48805;SDS011;34625;47.176;27.548;2022-10-30T09:13:36;8.55;;;5.00;;
48805;SDS011;34625;47.176;27.548;2022-10-30T09:16:04;11.20;;;6.03;;
48805;SDS011;34625;47.176;27.548;2022-10-30T09:18:33;8.65;;;4.90;;
48805;SDS011;34625;47.176;27.548;2022-10-30T09:20:59;16.40;;;7.70;;
48805;SDS011;34625;47.176;27.548;2022-10-30T09:23:26;10.88;;;4.93;;
48805;SDS011;34625;47.176;27.548;2022-10-30T09:26:04;9.32;;;4.78;;
48805;SDS011;34625;47.176;27.548;2022-10-30T09:28:48;13.35;;;5.22;;
48805;SDS011;34625;47.176;27.548;2022-10-30T09:31:43;8.40;;;4.68;;
48805;SDS011;34625;47.176;27.548;2022-10-30T09:34:13;6.63;;;3.58;;
48805;SDS011;34625;47.176;27.548;2022-10-30T09:36:43;6.03;;;3.53;;
48805;SDS011;34625;47.176;27.548;2022-10-30T09:39:11;14.73;;;4.97;;
48805;SDS011;34625;47.176;27.548;2022-10-30T09:47:21;12.07;;;5.40;;
48805;SDS011;34625;47.176;27.548;2022-10-30T09:57:56;10.45;;;5.45;;
48805;SDS011;34625;47.176;27.548;2022-10-30T10:00:47;11.35;;;5.80;;
48805;SDS011;34625;47.176;27.548;2022-10-30T10:03:32;7.03;;;4.15;;
48805;SDS011;34625;47.176;27.548;2022-10-30T10:06:38;8.70;;;4.75;;
48805;SDS011;34625;47.176;27.548;2022-10-30T10:09:40;8.85;;;4.63;;
48805;SDS011;34625;47.176;27.548;2022-10-30T10:15:12;11.60;;;5.85;;
48805;SDS011;34625;47.176;27.548;2022-10-30T10:17:59;10.93;;;5.25;;
48805;SDS011;34625;47.176;27.548;2022-10-30T10:20:32;12.65;;;5.07;;
48805;SDS011;34625;47.176;27.548;2022-10-30T10:23:04;9.15;;;4.53;;
48805;SDS011;34625;47.176;27.548;2022-10-30T10:25:43;13.50;;;5.25;;
48805;SDS011;34625;47.176;27.548;2022-10-30T10:30:59;8.20;;;3.65;;
48805;SDS011;34625;47.176;27.548;2022-10-30T10:34:15;7.40;;;3.95;;
48805;SDS011;34625;47.176;27.548;2022-10-30T10:42:00;5.93;;;3.10;;
48805;SDS011;34625;47.176;27.548;2022-10-30T10:44:52;9.65;;;5.10;;
48805;SDS011;34625;47.176;27.548;2022-10-30T10:53:06;7.40;;;4.05;;
48805;SDS011;34625;47.176;27.548;2022-10-30T10:55:43;8.02;;;4.57;;
48805;SDS011;34625;47.176;27.548;2022-10-30T10:58:27;10.00;;;4.65;;
48805;SDS011;34625;47.176;27.548;2022-10-30T11:00:58;1.10;;;1.10;;
48805;SDS011;34625;47.176;27.548;2022-10-30T11:06:27;9.65;;;4.55;;
48805;SDS011;34625;47.176;27.548;2022-10-30T11:09:15;3.72;;;2.70;;
48805;SDS011;34625;47.176;27.548;2022-10-30T11:11:49;4.78;;;2.83;;
48805;SDS011;34625;47.176;27.548;2022-10-30T11:14:17;1.55;;;1.45;;
48805;SDS011;34625;47.176;27.548;2022-10-30T11:17:03;6.15;;;3.25;;
48805;SDS011;34625;47.176;27.548;2022-10-30T11:19:33;14.77;;;6.03;;
48805;SDS011;34625;47.176;27.548;2022-10-30T11:21:58;8.73;;;4.53;;
48805;SDS011;34625;47.176;27.548;2022-10-30T11:24:33;11.07;;;4.25;;
48805;SDS011;34625;47.176;27.548;2022-10-30T11:30:03;10.90;;;4.70;;
48805;SDS011;34625;47.176;27.548;2022-10-30T11:32:31;6.88;;;4.38;;
48805;SDS011;34625;47.176;27.548;2022-10-30T11:37:33;9.85;;;5.07;;
48805;SDS011;34625;47.176;27.548;2022-10-30T11:42:36;7.30;;;4.78;;
48805;SDS011;34625;47.176;27.548;2022-10-30T11:45:15;10.65;;;4.28;;
48805;SDS011;34625;47.176;27.548;2022-10-30T11:47:49;8.75;;;4.53;;
48805;SDS011;34625;47.176;27.548;2022-10-30T11:50:20;9.77;;;3.70;;
48805;SDS011;34625;47.176;27.548;2022-10-30T11:52:50;7.05;;;4.05;;
48805;SDS011;34625;47.176;27.548;2022-10-30T11:58:05;6.75;;;3.33;;
48805;SDS011;34625;47.176;27.548;2022-10-30T12:00:35;8.05;;;3.80;;
48805;SDS011;34625;47.176;27.548;2022-10-30T12:03:09;6.70;;;3.80;;
48805;SDS011;34625;47.176;27.548;2022-10-30T12:11:46;5.10;;;3.40;;
48805;SDS011;34625;47.176;27.548;2022-10-30T12:14:20;4.95;;;3.58;;
48805;SDS011;34625;47.176;27.548;2022-10-30T12:16:49;5.22;;;4.10;;
48805;SDS011;34625;47.176;27.548;2022-10-30T12:19:16;9.00;;;5.32;;
48805;SDS011;34625;47.176;27.548;2022-10-30T12:21:46;7.43;;;4.30;;
48805;SDS011;34625;47.176;27.548;2022-10-30T12:24:22;10.32;;;4.75;;
48805;SDS011;34625;47.176;27.548;2022-10-30T12:26:59;7.38;;;4.57;;
48805;SDS011;34625;47.176;27.548;2022-10-30T12:29:36;10.57;;;4.85;;
48805;SDS011;34625;47.176;27.548;2022-10-30T12:32:07;6.72;;;4.28;;
48805;SDS011;34625;47.176;27.548;2022-10-30T12:34:39;5.22;;;4.15;;
48805;SDS011;34625;47.176;27.548;2022-10-30T12:37:25;15.57;;;6.70;;
48805;SDS011;34625;47.176;27.548;2022-10-30T12:40:03;8.88;;;3.90;;
48805;SDS011;34625;47.176;27.548;2022-10-30T12:42:36;10.65;;;4.78;;
48805;SDS011;34625;47.176;27.548;2022-10-30T12:45:14;8.95;;;5.35;;
48805;SDS011;34625;47.176;27.548;2022-10-30T12:50:26;10.95;;;4.70;;
48805;SDS011;34625;47.176;27.548;2022-10-30T12:55:44;7.32;;;4.68;;
48805;SDS011;34625;47.176;27.548;2022-10-30T13:04:07;7.15;;;3.97;;
48805;SDS011;34625;47.176;27.548;2022-10-30T13:09:23;6.68;;;4.05;;
48805;SDS011;34625;47.176;27.548;2022-10-30T13:12:17;7.18;;;3.90;;
48805;SDS011;34625;47.176;27.548;2022-10-30T13:14:48;6.32;;;3.55;;
48805;SDS011;34625;47.176;27.548;2022-10-30T13:17:23;6.22;;;3.85;;
48805;SDS011;34625;47.176;27.548;2022-10-30T13:19:49;8.65;;;4.03;;
48805;SDS011;34625;47.176;27.548;2022-10-30T13:22:19;4.45;;;3.40;;
48805;SDS011;34625;47.176;27.548;2022-10-30T13:27:56;8.32;;;4.43;;
48805;SDS011;34625;47.176;27.548;2022-10-30T13:30:34;9.57;;;3.72;;
48805;SDS011;34625;47.176;27.548;2022-10-30T13:33:08;6.13;;;3.97;;
48805;SDS011;34625;47.176;27.548;2022-10-30T13:50:10;7.70;;;4.18;;
48805;SDS011;34625;47.176;27.548;2022-10-30T13:52:36;12.63;;;4.35;;
48805;SDS011;34625;47.176;27.548;2022-10-30T13:55:18;9.68;;;4.93;;
48805;SDS011;34625;47.176;27.548;2022-10-30T14:03:30;8.40;;;4.55;;
48805;SDS011;34625;47.176;27.548;2022-10-30T14:15:14;8.30;;;4.55;;
48805;SDS011;34625;47.176;27.548;2022-10-30T14:20:45;24.30;;;8.70;;
48805;SDS011;34625;47.176;27.548;2022-10-30T14:28:29;16.45;;;4.93;;
48805;SDS011;34625;47.176;27.548;2022-10-30T14:31:03;9.05;;;4.70;;
48805;SDS011;34625;47.176;27.548;2022-10-30T14:36:46;11.48;;;5.25;;
48805;SDS011;34625;47.176;27.548;2022-10-30T14:49:56;8.60;;;4.32;;
48805;SDS011;34625;47.176;27.548;2022-10-30T14:58:15;12.23;;;4.80;;
48805;SDS011;34625;47.176;27.548;2022-10-30T15:00:46;6.78;;;3.95;;
48805;SDS011;34625;47.176;27.548;2022-10-30T15:06:21;8.02;;;4.45;;
48805;SDS011;34625;47.176;27.548;2022-10-30T15:11:48;9.35;;;3.90;;
48805;SDS011;34625;47.176;27.548;2022-10-30T15:16:57;10.70;;;4.20;;
48805;SDS011;34625;47.176;27.548;2022-10-30T15:19:24;9.52;;;4.28;;
48805;SDS011;34625;47.176;27.548;2022-10-30T15:21:51;10.35;;;5.20;;
48805;SDS011;34625;47.176;27.548;2022-10-30T15:24:22;13.20;;;5.18;;
48805;SDS011;34625;47.176;27.548;2022-10-30T15:26:52;7.15;;;3.88;;
48805;SDS011;34625;47.176;27.548;2022-10-30T15:29:26;12.35;;;5.80;;
48805;SDS011;34625;47.176;27.548;2022-10-30T15:32:00;7.80;;;4.35;;
48805;SDS011;34625;47.176;27.548;2022-10-30T15:34:29;12.82;;;5.38;;
48805;SDS011;34625;47.176;27.548;2022-10-30T15:36:56;11.38;;;4.43;;
48805;SDS011;34625;47.176;27.548;2022-10-30T15:39:22;14.52;;;5.45;;
48805;SDS011;34625;47.176;27.548;2022-10-30T15:41:58;11.65;;;5.50;;
48805;SDS011;34625;47.176;27.548;2022-10-30T15:44:30;12.25;;;5.50;;
48805;SDS011;34625;47.176;27.548;2022-10-30T15:47:00;15.20;;;5.95;;
48805;SDS011;34625;47.176;27.548;2022-10-30T15:49:29;9.63;;;4.57;;
48805;SDS011;34625;47.176;27.548;2022-10-30T15:52:12;10.38;;;5.22;;
48805;SDS011;34625;47.176;27.548;2022-10-30T15:54:48;13.20;;;6.05;;
48805;SDS011;34625;47.176;27.548;2022-10-30T15:57:34;13.25;;;5.95;;
48805;SDS011;34625;47.176;27.548;2022-10-30T16:00:17;8.73;;;4.95;;
48805;SDS011;34625;47.176;27.548;2022-10-30T16:03:05;16.15;;;6.70;;
48805;SDS011;34625;47.176;27.548;2022-10-30T16:05:37;12.88;;;5.10;;
48805;SDS011;34625;47.176;27.548;2022-10-30T16:08:08;11.75;;;5.75;;
48805;SDS011;34625;47.176;27.548;2022-10-30T16:10:43;12.20;;;5.25;;
48805;SDS011;34625;47.176;27.548;2022-10-30T16:13:15;9.73;;;5.50;;
48805;SDS011;34625;47.176;27.548;2022-10-30T16:15:43;18.88;;;5.68;;
48805;SDS011;34625;47.176;27.548;2022-10-30T16:20:49;11.45;;;5.90;;
48805;SDS011;34625;47.176;27.548;2022-10-30T16:23:18;11.38;;;5.18;;
48805;SDS011;34625;47.176;27.548;2022-10-30T16:25:46;8.73;;;4.88;;
48805;SDS011;34625;47.176;27.548;2022-10-30T16:28:28;8.27;;;4.75;;
48805;SDS011;34625;47.176;27.548;2022-10-30T16:31:00;9.93;;;5.38;;
48805;SDS011;34625;47.176;27.548;2022-10-30T16:33:28;8.05;;;5.18;;
48805;SDS011;34625;47.176;27.548;2022-10-30T16:35:56;9.65;;;4.38;;
48805;SDS011;34625;47.176;27.548;2022-10-30T16:38:25;9.95;;;5.90;;
48805;SDS011;34625;47.176;27.548;2022-10-30T16:40:55;9.68;;;5.30;;
48805;SDS011;34625;47.176;27.548;2022-10-30T16:43:29;9.25;;;5.57;;
48805;SDS011;34625;47.176;27.548;2022-10-30T16:46:09;5.53;;;3.65;;
48805;SDS011;34625;47.176;27.548;2022-10-30T16:48:44;14.27;;;5.97;;
48805;SDS011;34625;47.176;27.548;2022-10-30T16:51:20;9.07;;;6.28;;
48805;SDS011;34625;47.176;27.548;2022-10-30T16:53:46;8.63;;;6.38;;
48805;SDS011;34625;47.176;27.548;2022-10-30T16:56:24;10.38;;;5.10;;
48805;SDS011;34625;47.176;27.548;2022-10-30T16:58:53;10.57;;;5.38;;
48805;SDS011;34625;47.176;27.548;2022-10-30T17:01:41;7.80;;;4.97;;
48805;SDS011;34625;47.176;27.548;2022-10-30T17:04:10;7.10;;;3.58;;
48805;SDS011;34625;47.176;27.548;2022-10-30T17:06:40;5.72;;;4.38;;
48805;SDS011;34625;47.176;27.548;2022-10-30T17:09:09;9.13;;;4.60;;
48805;SDS011;34625;47.176;27.548;2022-10-30T17:14:54;8.43;;;4.40;;
48805;SDS011;34625;47.176;27.548;2022-10-30T17:17:35;6.65;;;3.95;;
48805;SDS011;34625;47.176;27.548;2022-10-30T17:20:04;6.32;;;3.97;;
48805;SDS011;34625;47.176;27.548;2022-10-30T17:22:50;12.27;;;5.13;;
48805;SDS011;34625;47.176;27.548;2022-10-30T17:25:31;6.60;;;5.05;;
48805;SDS011;34625;47.176;27.548;2022-10-30T17:28:03;8.90;;;4.97;;
48805;SDS011;34625;47.176;27.548;2022-10-30T17:30:37;8.50;;;4.45;;
48805;SDS011;34625;47.176;27.548;2022-10-30T17:33:21;7.82;;;4.88;;
48805;SDS011;34625;47.176;27.548;2022-10-30T17:35:50;7.53;;;4.90;;
48805;SDS011;34625;47.176;27.548;2022-10-30T17:38:18;6.85;;;4.95;;
48805;SDS011;34625;47.176;27.548;2022-10-30T17:40:44;9.20;;;5.35;;
48805;SDS011;34625;47.176;27.548;2022-10-30T17:43:13;6.47;;;4.35;;
48805;SDS011;34625;47.176;27.548;2022-10-30T17:45:40;5.97;;;4.70;;
48805;SDS011;34625;47.176;27.548;2022-10-30T17:48:10;3.33;;;2.53;;